createdAt,value
2018-03-01T00:00:41.899Z,1021.1
2018-03-01T00:01:41.904Z,1021.11
2018-03-01T00:02:41.914Z,1021.06
2018-03-01T00:04:41.932Z,1021.09
2018-03-01T00:05:41.936Z,1021.05
2018-03-01T00:06:41.947Z,1021.11
2018-03-01T00:07:41.954Z,1021.03
2018-03-01T00:08:41.959Z,1021.04
2018-03-01T00:09:41.967Z,1020.95
2018-03-01T00:10:41.976Z,1020.97
2018-03-01T00:11:41.987Z,1020.97
2018-03-01T00:12:41.991Z,1020.97
2018-03-01T00:13:42.000Z,1020.95
2018-03-01T00:14:42.006Z,1020.98
2018-03-01T00:15:42.023Z,1020.96
2018-03-01T00:16:42.028Z,1020.87
2018-03-01T00:17:42.030Z,1020.86
2018-03-01T00:18:42.043Z,1020.82
2018-03-01T00:20:42.060Z,1020.83
2018-03-01T00:21:42.066Z,1020.78
2018-03-01T00:22:42.075Z,1020.76
2018-03-01T00:23:42.079Z,1020.78
2018-03-01T00:24:42.091Z,1020.76
2018-03-01T00:25:42.098Z,1020.77
2018-03-01T00:26:42.106Z,1020.71
2018-03-01T00:27:42.110Z,1020.74
2018-03-01T00:28:42.118Z,1020.7
2018-03-01T00:29:42.126Z,1020.74
2018-03-01T00:30:42.137Z,1020.77
2018-03-01T00:31:42.145Z,1020.73
2018-03-01T00:32:42.152Z,1020.77
2018-03-01T00:33:42.158Z,1020.78
2018-03-01T00:34:42.166Z,1020.74
2018-03-01T00:36:42.184Z,1020.77
2018-03-01T00:37:42.192Z,1020.75
2018-03-01T00:38:42.198Z,1020.77
2018-03-01T00:39:42.213Z,1020.72
2018-03-01T00:40:42.215Z,1020.71
2018-03-01T00:41:42.225Z,1020.69
2018-03-01T00:42:42.232Z,1020.7
2018-03-01T00:43:42.237Z,1020.73
2018-03-01T00:44:42.248Z,1020.66
2018-03-01T00:45:42.255Z,1020.67
2018-03-01T00:46:42.261Z,1020.66
2018-03-01T00:47:42.268Z,1020.59
2018-03-01T00:48:42.278Z,1020.64
2018-03-01T00:49:42.284Z,1020.65
2018-03-01T00:50:42.292Z,1020.66
2018-03-01T00:52:42.313Z,1020.59
2018-03-01T00:53:42.361Z,1020.61
2018-03-01T00:54:42.324Z,1020.65
2018-03-01T00:55:42.333Z,1020.63
2018-03-01T00:56:42.342Z,1020.6
2018-03-01T00:57:42.350Z,1020.55
2018-03-01T00:58:42.358Z,1020.48
2018-03-01T00:59:42.364Z,1020.46
2018-03-01T01:00:42.372Z,1020.44
2018-03-01T01:01:42.379Z,1020.39
2018-03-01T01:02:42.387Z,1020.48
2018-03-01T01:03:42.395Z,1020.41
2018-03-01T01:04:42.404Z,1020.42
2018-03-01T01:05:42.413Z,1020.44
2018-03-01T01:07:42.427Z,1020.33
2018-03-01T01:08:42.437Z,1020.35
2018-03-01T01:09:42.445Z,1020.32
2018-03-01T01:10:42.451Z,1020.23
2018-03-01T01:11:42.459Z,1020.24
2018-03-01T01:12:42.466Z,1020.22
2018-03-01T01:13:42.474Z,1020.2
2018-03-01T01:14:42.483Z,1020.25
2018-03-01T01:15:42.490Z,1020.18
2018-03-01T01:16:42.500Z,1020.14
2018-03-01T01:17:42.508Z,1020.15
2018-03-01T01:18:42.516Z,1020.09
2018-03-01T01:19:42.525Z,1020.02
2018-03-01T01:20:42.535Z,1020.06
2018-03-01T01:21:42.539Z,1020.06
2018-03-01T01:22:42.548Z,1020.04
2018-03-01T01:23:42.555Z,1019.98
2018-03-01T01:24:42.662Z,1020.02
2018-03-01T01:25:42.574Z,1019.97
2018-03-01T01:26:42.577Z,1019.96
2018-03-01T01:27:42.585Z,1019.96
2018-03-01T01:28:42.597Z,1019.96
2018-03-01T01:29:42.605Z,1019.91
2018-03-01T01:30:42.612Z,1019.96
2018-03-01T01:31:42.617Z,1019.88
2018-03-01T01:32:42.625Z,1019.83
2018-03-01T01:33:42.637Z,1019.82
2018-03-01T01:34:42.642Z,1019.82
2018-03-01T01:35:42.648Z,1019.78
2018-03-01T01:36:42.656Z,1019.79
2018-03-01T01:37:42.663Z,1019.8
2018-03-01T01:39:42.685Z,1019.79
2018-03-01T01:40:42.687Z,1019.8
2018-03-01T01:41:42.694Z,1019.79
2018-03-01T01:42:42.706Z,1019.84
2018-03-01T01:43:42.714Z,1019.75
2018-03-01T01:44:42.718Z,1019.76
2018-03-01T01:45:42.730Z,1019.77
2018-03-01T01:46:42.734Z,1019.77
2018-03-01T01:47:42.746Z,1019.83
2018-03-01T01:48:42.748Z,1019.78
2018-03-01T01:49:42.762Z,1019.79
2018-03-01T01:50:42.764Z,1019.82
2018-03-01T01:51:42.778Z,1019.87
2018-03-01T01:52:42.781Z,1019.77
2018-03-01T01:53:42.789Z,1019.79
2018-03-01T01:55:42.804Z,1019.86
2018-03-01T01:56:42.819Z,1019.86
2018-03-01T01:57:42.823Z,1019.8
2018-03-01T01:58:42.831Z,1019.81
2018-03-01T01:59:42.933Z,1019.79
2018-03-01T02:00:42.844Z,1019.72
2018-03-01T02:01:42.851Z,1019.7
2018-03-01T02:02:42.858Z,1019.73
2018-03-01T02:03:42.867Z,1019.65
2018-03-01T02:04:42.904Z,1019.64
2018-03-01T02:05:42.882Z,1019.64
2018-03-01T02:06:42.892Z,1019.63
2018-03-01T02:07:42.896Z,1019.56
2018-03-01T02:08:42.904Z,1019.53
2018-03-01T02:09:42.912Z,1019.49
2018-03-01T02:11:42.930Z,1019.41
2018-03-01T02:12:42.935Z,1019.32
2018-03-01T02:13:42.948Z,1019.3
2018-03-01T02:14:42.957Z,1019.26
2018-03-01T02:15:42.958Z,1019.2
2018-03-01T02:16:42.968Z,1019.21
2018-03-01T02:17:42.977Z,1019.2
2018-03-01T02:18:42.980Z,1019.12
2018-03-01T02:19:42.989Z,1019.2
2018-03-01T02:20:42.996Z,1019.23
2018-03-01T02:21:43.011Z,1019.2
2018-03-01T02:22:43.016Z,1019.18
2018-03-01T02:23:43.019Z,1019.15
2018-03-01T02:24:43.034Z,1019.13
2018-03-01T02:25:43.034Z,1019.16
2018-03-01T02:27:43.054Z,1019.12
2018-03-01T02:28:43.064Z,1019.09
2018-03-01T02:29:43.070Z,1019.07
2018-03-01T02:30:43.075Z,1019.07
2018-03-01T02:31:43.081Z,1019.05
2018-03-01T02:32:43.090Z,1019.01
2018-03-01T02:33:43.102Z,1019.03
2018-03-01T02:34:43.110Z,1018.92
2018-03-01T02:35:43.113Z,1018.92
2018-03-01T02:36:43.122Z,1018.92
2018-03-01T02:37:43.127Z,1018.9
2018-03-01T02:38:43.134Z,1018.88
2018-03-01T02:39:43.148Z,1018.91
2018-03-01T02:40:43.152Z,1018.84
2018-03-01T02:42:43.170Z,1018.85
2018-03-01T02:43:43.174Z,1018.82
2018-03-01T02:44:43.185Z,1018.8
2018-03-01T02:45:43.191Z,1018.8
2018-03-01T02:46:43.201Z,1018.75
2018-03-01T02:47:43.207Z,1018.77
2018-03-01T02:48:43.213Z,1018.76
2018-03-01T02:49:43.225Z,1018.82
2018-03-01T02:50:43.232Z,1018.82
2018-03-01T02:51:43.237Z,1018.82
2018-03-01T02:52:43.243Z,1018.85
2018-03-01T02:53:43.252Z,1018.82
2018-03-01T02:54:43.257Z,1018.86
2018-03-01T02:55:43.275Z,1018.84
2018-03-01T02:56:43.274Z,1018.8
2018-03-01T02:57:43.282Z,1018.82
2018-03-01T02:58:43.289Z,1018.89
2018-03-01T02:59:43.297Z,1018.9
2018-03-01T03:00:43.305Z,1018.88
2018-03-01T03:01:43.310Z,1018.9
2018-03-01T03:02:43.322Z,1018.88
2018-03-01T03:03:43.328Z,1018.83
2018-03-01T03:04:43.334Z,1018.8
2018-03-01T03:05:43.341Z,1018.8
2018-03-01T03:06:43.349Z,1018.82
2018-03-01T03:07:43.358Z,1018.79
2018-03-01T03:08:43.366Z,1018.7
2018-03-01T03:09:43.373Z,1018.71
2018-03-01T03:10:43.381Z,1018.66
2018-03-01T03:11:43.388Z,1018.64
2018-03-01T03:12:43.399Z,1018.68
2018-03-01T03:14:43.411Z,1018.63
2018-03-01T03:15:43.419Z,1018.63
2018-03-01T03:16:43.425Z,1018.65
2018-03-01T03:17:43.436Z,1018.61
2018-03-01T03:18:43.442Z,1018.62
2018-03-01T03:19:43.452Z,1018.57
2018-03-01T03:20:43.556Z,1018.6
2018-03-01T03:21:43.468Z,1018.64
2018-03-01T03:22:43.471Z,1018.56
2018-03-01T03:23:43.483Z,1018.61
2018-03-01T03:24:43.491Z,1018.63
2018-03-01T03:25:43.495Z,1018.59
2018-03-01T03:26:43.507Z,1018.65
2018-03-01T03:27:43.508Z,1018.6
2018-03-01T03:28:43.517Z,1018.58
2018-03-01T03:30:43.533Z,1018.56
2018-03-01T03:31:43.542Z,1018.53
2018-03-01T03:32:43.551Z,1018.53
2018-03-01T03:33:43.561Z,1018.54
2018-03-01T03:34:43.561Z,1018.59
2018-03-01T03:35:43.573Z,1018.57
2018-03-01T03:36:43.577Z,1018.57
2018-03-01T03:37:43.586Z,1018.54
2018-03-01T03:38:43.596Z,1018.52
2018-03-01T03:39:43.603Z,1018.53
2018-03-01T03:40:43.607Z,1018.53
2018-03-01T03:41:43.619Z,1018.52
2018-03-01T03:42:43.626Z,1018.5
2018-03-01T03:43:43.632Z,1018.45
2018-03-01T03:44:43.638Z,1018.48
2018-03-01T03:46:43.654Z,1018.49
2018-03-01T03:47:43.664Z,1018.44
2018-03-01T03:48:43.669Z,1018.48
2018-03-01T03:49:43.676Z,1018.42
2018-03-01T03:50:43.686Z,1018.45
2018-03-01T03:51:43.690Z,1018.48
2018-03-01T03:52:43.698Z,1018.45
2018-03-01T03:53:43.706Z,1018.44
2018-03-01T03:54:43.717Z,1018.43
2018-03-01T03:55:43.722Z,1018.46
2018-03-01T03:56:43.728Z,1018.44
2018-03-01T03:57:43.735Z,1018.44
2018-03-01T03:58:43.746Z,1018.47
2018-03-01T03:59:43.755Z,1018.44
2018-03-01T04:00:43.762Z,1018.45
2018-03-01T04:02:43.773Z,1018.41
2018-03-01T04:03:43.785Z,1018.43
2018-03-01T04:04:43.789Z,1018.47
2018-03-01T04:05:43.797Z,1018.48
2018-03-01T04:06:43.805Z,1018.46
2018-03-01T04:07:43.911Z,1018.48
2018-03-01T04:08:43.826Z,1018.45
2018-03-01T04:09:43.830Z,1018.42
2018-03-01T04:10:43.835Z,1018.47
2018-03-01T04:11:43.840Z,1018.42
2018-03-01T04:12:43.848Z,1018.46
2018-03-01T04:13:43.884Z,1018.48
2018-03-01T04:14:43.864Z,1018.48
2018-03-01T04:15:43.873Z,1018.43
2018-03-01T04:17:43.887Z,1018.39
2018-03-01T04:18:43.894Z,1018.41
2018-03-01T04:19:43.908Z,1018.43
2018-03-01T04:20:43.911Z,1018.35
2018-03-01T04:21:43.917Z,1018.36
2018-03-01T04:22:43.924Z,1018.4
2018-03-01T04:23:43.933Z,1018.4
2018-03-01T04:24:43.943Z,1018.39
2018-03-01T04:25:43.954Z,1018.43
2018-03-01T04:26:43.956Z,1018.43
2018-03-01T04:27:43.962Z,1018.45
2018-03-01T04:28:43.972Z,1018.47
2018-03-01T04:29:43.980Z,1018.52
2018-03-01T04:30:43.988Z,1018.49
2018-03-01T04:31:43.995Z,1018.46
2018-03-01T04:32:44.006Z,1018.46
2018-03-01T04:33:44.011Z,1018.48
2018-03-01T04:34:44.019Z,1018.46
2018-03-01T04:35:44.022Z,1018.53
2018-03-01T04:36:44.030Z,1018.46
2018-03-01T04:37:44.041Z,1018.47
2018-03-01T04:38:44.048Z,1018.44
2018-03-01T04:39:44.056Z,1018.4
2018-03-01T04:40:44.060Z,1018.42
2018-03-01T04:41:44.067Z,1018.47
2018-03-01T04:42:44.077Z,1018.45
2018-03-01T04:43:44.082Z,1018.44
2018-03-01T04:44:44.090Z,1018.41
2018-03-01T04:45:44.097Z,1018.38
2018-03-01T04:46:44.106Z,1018.38
2018-03-01T04:47:44.117Z,1018.4
2018-03-01T04:49:44.126Z,1018.37
2018-03-01T04:50:44.136Z,1018.36
2018-03-01T04:51:44.148Z,1018.32
2018-03-01T04:52:44.160Z,1018.35
2018-03-01T04:53:44.157Z,1018.32
2018-03-01T04:54:44.165Z,1018.28
2018-03-01T04:55:44.190Z,1018.32
2018-03-01T04:56:44.179Z,1018.39
2018-03-01T04:57:44.187Z,1018.3
2018-03-01T04:58:44.196Z,1018.32
2018-03-01T04:59:44.203Z,1018.28
2018-03-01T05:00:44.212Z,1018.3
2018-03-01T05:01:44.216Z,1018.24
2018-03-01T05:02:44.226Z,1018.29
2018-03-01T05:03:44.233Z,1018.26
2018-03-01T05:05:44.252Z,1018.25
2018-03-01T05:06:44.255Z,1018.23
2018-03-01T05:07:44.260Z,1018.24
2018-03-01T05:08:44.268Z,1018.27
2018-03-01T05:09:44.277Z,1018.19
2018-03-01T05:10:44.282Z,1018.21
2018-03-01T05:11:44.292Z,1018.23
2018-03-01T05:12:44.297Z,1018.21
2018-03-01T05:13:44.406Z,1018.24
2018-03-01T05:14:44.310Z,1018.22
2018-03-01T05:15:44.318Z,1018.15
2018-03-01T05:16:44.326Z,1018.17
2018-03-01T05:17:44.335Z,1018.1
2018-03-01T05:18:44.340Z,1018.16
2018-03-01T05:19:44.363Z,1018.09
2018-03-01T05:21:44.362Z,1018.13
2018-03-01T05:22:44.369Z,1018.07
2018-03-01T05:23:44.378Z,1018.05
2018-03-01T05:24:44.385Z,1018.07
2018-03-01T05:25:44.392Z,1018.02
2018-03-01T05:26:44.403Z,1018.04
2018-03-01T05:27:44.407Z,1017.99
2018-03-01T05:28:44.414Z,1018.04
2018-03-01T05:29:44.425Z,1017.95
2018-03-01T05:30:44.429Z,1017.95
2018-03-01T05:31:44.436Z,1017.96
2018-03-01T05:32:44.446Z,1018.01
2018-03-01T05:33:44.454Z,1018.07
2018-03-01T05:34:44.458Z,1017.97
2018-03-01T05:35:44.468Z,1017.99
2018-03-01T05:37:44.482Z,1017.99
2018-03-01T05:38:44.488Z,1017.92
2018-03-01T05:39:44.497Z,1017.9
2018-03-01T05:40:44.505Z,1017.86
2018-03-01T05:41:44.510Z,1017.81
2018-03-01T05:42:44.516Z,1017.79
2018-03-01T05:43:44.523Z,1017.84
2018-03-01T05:44:44.534Z,1017.8
2018-03-01T05:45:44.542Z,1017.83
2018-03-01T05:46:44.545Z,1017.79
2018-03-01T05:47:44.552Z,1017.77
2018-03-01T05:48:44.564Z,1017.9
2018-03-01T05:49:44.571Z,1017.79
2018-03-01T05:50:44.575Z,1017.77
2018-03-01T05:52:44.591Z,1017.79
2018-03-01T05:53:44.600Z,1017.76
2018-03-01T05:54:44.605Z,1017.79
2018-03-01T05:55:44.612Z,1017.75
2018-03-01T05:56:44.623Z,1017.76
2018-03-01T05:57:44.629Z,1017.75
2018-03-01T05:58:44.638Z,1017.76
2018-03-01T05:59:44.644Z,1017.77
2018-03-01T06:00:44.654Z,1017.75
2018-03-01T06:01:44.655Z,1017.74
2018-03-01T06:02:44.674Z,1017.79
2018-03-01T06:03:44.677Z,1017.81
2018-03-01T06:04:44.680Z,1017.76
2018-03-01T06:05:44.689Z,1017.75
2018-03-01T06:06:44.697Z,1017.78
2018-03-01T06:07:44.704Z,1017.75
2018-03-01T06:08:44.710Z,1017.71
2018-03-01T06:09:44.715Z,1017.76
2018-03-01T06:10:44.722Z,1017.74
2018-03-01T06:11:44.733Z,1017.71
2018-03-01T06:12:44.736Z,1017.72
2018-03-01T06:13:44.744Z,1017.66
2018-03-01T06:14:44.752Z,1017.6
2018-03-01T06:15:44.758Z,1017.64
2018-03-01T06:16:44.774Z,1017.62
2018-03-01T06:17:44.777Z,1017.59
2018-03-01T06:18:44.785Z,1017.56
2018-03-01T06:19:44.790Z,1017.62
2018-03-01T06:20:44.798Z,1017.56
2018-03-01T06:21:44.804Z,1017.54
2018-03-01T06:22:44.809Z,1017.49
2018-03-01T06:24:44.829Z,1017.52
2018-03-01T06:25:44.836Z,1017.43
2018-03-01T06:26:44.843Z,1017.48
2018-03-01T06:27:44.848Z,1017.46
2018-03-01T06:28:44.860Z,1017.42
2018-03-01T06:29:44.869Z,1017.35
2018-03-01T06:30:44.877Z,1017.42
2018-03-01T06:31:44.883Z,1017.5
2018-03-01T06:32:44.895Z,1017.55
2018-03-01T06:33:44.902Z,1017.51
2018-03-01T06:34:44.913Z,1017.5
2018-03-01T06:35:44.923Z,1017.56
2018-03-01T06:36:44.932Z,1017.58
2018-03-01T06:37:44.937Z,1017.55
2018-03-01T06:38:44.948Z,1017.59
2018-03-01T06:40:44.970Z,1017.64
2018-03-01T06:41:44.980Z,1017.63
2018-03-01T06:42:44.990Z,1017.71
2018-03-01T06:43:45.001Z,1017.69
2018-03-01T06:44:45.112Z,1017.73
2018-03-01T06:45:45.024Z,1017.61
2018-03-01T06:46:45.034Z,1017.61
2018-03-01T06:47:45.046Z,1017.6
2018-03-01T06:48:45.057Z,1017.59
2018-03-01T06:49:45.072Z,1017.58
2018-03-01T06:50:45.081Z,1017.6
2018-03-01T06:51:45.096Z,1017.51
2018-03-01T06:52:45.105Z,1017.51
2018-03-01T06:53:45.131Z,1017.5
2018-03-01T06:54:45.135Z,1017.51
2018-03-01T06:56:45.156Z,1017.51
2018-03-01T06:57:45.170Z,1017.56
2018-03-01T06:58:45.191Z,1017.56
2018-03-01T06:59:45.198Z,1017.56
2018-03-01T07:00:45.214Z,1017.52
2018-03-01T07:01:45.227Z,1017.5
2018-03-01T07:02:45.239Z,1017.55
2018-03-01T07:03:45.252Z,1017.5
2018-03-01T07:04:45.268Z,1017.49
2018-03-01T07:05:45.340Z,1017.44
2018-03-01T07:06:45.293Z,1017.43
2018-03-01T07:07:45.307Z,1017.47
2018-03-01T07:08:45.323Z,1017.46
2018-03-01T07:09:45.340Z,1017.46
2018-03-01T07:10:45.352Z,1017.47
2018-03-01T07:12:45.385Z,1017.43
2018-03-01T07:13:45.399Z,1017.43
2018-03-01T07:14:45.411Z,1017.47
2018-03-01T07:15:45.430Z,1017.45
2018-03-01T07:16:45.445Z,1017.33
2018-03-01T07:17:45.456Z,1017.37
2018-03-01T07:18:45.475Z,1017.33
2018-03-01T07:19:45.489Z,1017.32
2018-03-01T07:20:45.503Z,1017.32
2018-03-01T07:21:45.517Z,1017.38
2018-03-01T07:22:45.531Z,1017.36
2018-03-01T07:23:45.546Z,1017.4
2018-03-01T07:24:45.561Z,1017.36
2018-03-01T07:25:45.578Z,1017.34
2018-03-01T07:27:45.651Z,1017.23
2018-03-01T07:28:45.622Z,1017.17
2018-03-01T07:29:45.643Z,1017.17
2018-03-01T07:30:45.658Z,1017.14
2018-03-01T07:31:45.672Z,1017.14
2018-03-01T07:32:45.685Z,1017.16
2018-03-01T07:33:45.703Z,1017.16
2018-03-01T07:34:45.717Z,1017.16
2018-03-01T07:35:45.730Z,1017.14
2018-03-01T07:36:45.744Z,1017.13
2018-03-01T07:37:45.761Z,1017.08
2018-03-01T07:38:45.780Z,1017.05
2018-03-01T07:39:45.794Z,1017.01
2018-03-01T07:40:45.807Z,1017
2018-03-01T07:41:45.820Z,1016.95
2018-03-01T07:42:45.836Z,1016.92
2018-03-01T07:43:45.851Z,1016.92
2018-03-01T07:44:45.865Z,1016.9
2018-03-01T07:45:45.886Z,1016.9
2018-03-01T07:46:45.897Z,1016.9
2018-03-01T07:47:45.912Z,1016.93
2018-03-01T07:48:45.932Z,1016.96
2018-03-01T07:49:45.940Z,1016.89
2018-03-01T07:50:45.957Z,1016.87
2018-03-01T07:51:45.972Z,1016.91
2018-03-01T07:52:45.984Z,1016.91
2018-03-01T07:53:45.998Z,1016.86
2018-03-01T07:54:46.012Z,1016.89
2018-03-01T07:55:46.031Z,1016.9
2018-03-01T07:56:46.040Z,1016.84
2018-03-01T07:57:46.053Z,1016.85
2018-03-01T07:59:46.088Z,1016.84
2018-03-01T08:00:46.097Z,1016.83
2018-03-01T08:01:46.113Z,1016.87
2018-03-01T08:02:46.126Z,1016.84
2018-03-01T08:03:46.152Z,1016.88
2018-03-01T08:04:46.156Z,1016.77
2018-03-01T08:05:46.164Z,1016.86
2018-03-01T08:06:46.179Z,1016.91
2018-03-01T08:07:46.196Z,1016.96
2018-03-01T08:08:46.209Z,1016.85
2018-03-01T08:09:46.223Z,1016.83
2018-03-01T08:10:46.236Z,1016.85
2018-03-01T08:11:46.250Z,1016.81
2018-03-01T08:12:46.261Z,1016.84
2018-03-01T08:13:46.275Z,1016.86
2018-03-01T08:15:46.302Z,1016.81
2018-03-01T08:16:46.360Z,1016.86
2018-03-01T08:17:46.322Z,1016.81
2018-03-01T08:18:46.336Z,1016.84
2018-03-01T08:19:46.352Z,1016.85
2018-03-01T08:20:46.362Z,1016.85
2018-03-01T08:21:46.375Z,1016.78
2018-03-01T08:22:46.391Z,1016.78
2018-03-01T08:23:46.403Z,1016.81
2018-03-01T08:24:46.415Z,1016.82
2018-03-01T08:25:46.425Z,1016.8
2018-03-01T08:26:46.438Z,1016.78
2018-03-01T08:27:46.454Z,1016.76
2018-03-01T08:28:46.463Z,1016.74
2018-03-01T08:29:46.475Z,1016.68
2018-03-01T08:31:46.500Z,1016.67
2018-03-01T08:32:46.514Z,1016.66
2018-03-01T08:33:46.525Z,1016.61
2018-03-01T08:34:46.537Z,1016.57
2018-03-01T08:35:46.551Z,1016.58
2018-03-01T08:36:46.567Z,1016.57
2018-03-01T08:37:46.576Z,1016.55
2018-03-01T08:38:46.587Z,1016.61
2018-03-01T08:39:46.599Z,1016.62
2018-03-01T08:40:46.617Z,1016.56
2018-03-01T08:41:46.626Z,1016.55
2018-03-01T08:42:46.687Z,1016.5
2018-03-01T08:43:46.650Z,1016.5
2018-03-01T08:44:46.672Z,1016.54
2018-03-01T08:45:46.675Z,1016.48
2018-03-01T08:47:46.702Z,1016.39
2018-03-01T08:48:46.767Z,1016.38
2018-03-01T08:49:46.728Z,1016.38
2018-03-01T08:50:46.741Z,1016.35
2018-03-01T08:51:46.753Z,1016.36
2018-03-01T08:52:46.761Z,1016.36
2018-03-01T08:53:46.778Z,1016.39
2018-03-01T08:54:46.786Z,1016.38
2018-03-01T08:55:46.799Z,1016.32
2018-03-01T08:56:46.811Z,1016.29
2018-03-01T08:57:46.826Z,1016.27
2018-03-01T08:58:46.836Z,1016.25
2018-03-01T08:59:46.853Z,1016.28
2018-03-01T09:00:46.864Z,1016.27
2018-03-01T09:02:46.888Z,1016.17
2018-03-01T09:03:46.900Z,1016.2
2018-03-01T09:04:46.914Z,1016.2
2018-03-01T09:05:46.923Z,1016.2
2018-03-01T09:06:46.939Z,1016.17
2018-03-01T09:07:46.948Z,1016.13
2018-03-01T09:08:46.963Z,1016.12
2018-03-01T09:09:46.971Z,1016.15
2018-03-01T09:10:46.983Z,1016.12
2018-03-01T09:11:47.004Z,1016.14
2018-03-01T09:12:47.013Z,1016.09
2018-03-01T09:13:47.024Z,1016.1
2018-03-01T09:14:47.032Z,1016.09
2018-03-01T09:15:47.050Z,1016.07
2018-03-01T09:16:47.056Z,1016.11
2018-03-01T09:17:47.069Z,1016.06
2018-03-01T09:18:47.085Z,1016.09
2018-03-01T09:19:47.094Z,1016.12
2018-03-01T09:20:47.109Z,1016.13
2018-03-01T09:21:47.117Z,1016.12
2018-03-01T09:22:47.132Z,1016.1
2018-03-01T09:23:47.151Z,1016.07
2018-03-01T09:24:47.159Z,1016.06
2018-03-01T09:25:47.168Z,1016.06
2018-03-01T09:26:47.181Z,1016.03
2018-03-01T09:27:47.193Z,1016.03
2018-03-01T09:28:47.207Z,1016.01
2018-03-01T09:29:47.221Z,1015.99
2018-03-01T09:30:47.230Z,1015.96
2018-03-01T09:31:47.243Z,1015.97
2018-03-01T09:32:47.255Z,1016.01
2018-03-01T09:34:47.280Z,1015.94
2018-03-01T09:35:47.296Z,1015.94
2018-03-01T09:36:47.307Z,1015.89
2018-03-01T09:37:47.317Z,1015.85
2018-03-01T09:38:47.330Z,1015.78
2018-03-01T09:39:47.345Z,1015.86
2018-03-01T09:40:47.359Z,1015.85
2018-03-01T09:41:47.367Z,1015.83
2018-03-01T09:42:47.380Z,1015.85
2018-03-01T09:43:47.394Z,1015.76
2018-03-01T09:44:47.406Z,1015.75
2018-03-01T09:45:47.417Z,1015.77
2018-03-01T09:46:47.433Z,1015.78
2018-03-01T09:47:47.440Z,1015.76
2018-03-01T09:50:47.473Z,1015.78
2018-03-01T09:51:47.484Z,1015.74
2018-03-01T09:52:47.497Z,1015.77
2018-03-01T09:53:47.509Z,1015.78
2018-03-01T09:54:47.521Z,1015.76
2018-03-01T09:55:47.534Z,1015.75
2018-03-01T09:56:47.546Z,1015.76
2018-03-01T09:57:47.558Z,1015.75
2018-03-01T09:58:47.570Z,1015.79
2018-03-01T09:59:47.582Z,1015.77
2018-03-01T10:00:47.595Z,1015.83
2018-03-01T10:01:47.607Z,1015.73
2018-03-01T10:02:47.719Z,1015.71
2018-03-01T10:03:47.632Z,1015.72
2018-03-01T10:04:47.644Z,1015.65
2018-03-01T10:06:47.669Z,1015.63
2018-03-01T10:07:47.681Z,1015.56
2018-03-01T10:08:47.693Z,1015.57
2018-03-01T10:09:47.705Z,1015.45
2018-03-01T10:10:47.718Z,1015.55
2018-03-01T10:11:47.730Z,1015.52
2018-03-01T10:12:47.746Z,1015.45
2018-03-01T10:13:47.755Z,1015.49
2018-03-01T10:14:47.767Z,1015.53
2018-03-01T10:15:47.780Z,1015.51
2018-03-01T10:16:47.791Z,1015.48
2018-03-01T10:17:47.803Z,1015.43
2018-03-01T10:18:47.816Z,1015.42
2018-03-01T10:19:47.828Z,1015.45
2018-03-01T10:20:47.840Z,1015.38
2018-03-01T10:22:47.865Z,1015.46
2018-03-01T10:23:47.877Z,1015.32
2018-03-01T10:24:47.889Z,1015.31
2018-03-01T10:25:47.901Z,1015.28
2018-03-01T10:26:47.913Z,1015.37
2018-03-01T10:27:47.925Z,1015.44
2018-03-01T10:28:47.937Z,1015.38
2018-03-01T10:29:47.985Z,1015.36
2018-03-01T10:30:47.966Z,1015.25
2018-03-01T10:31:47.972Z,1015.27
2018-03-01T10:32:47.984Z,1015.2
2018-03-01T10:33:47.996Z,1015.25
2018-03-01T10:34:48.016Z,1015.24
2018-03-01T10:35:48.020Z,1015.19
2018-03-01T10:37:48.043Z,1015.19
2018-03-01T10:38:48.054Z,1015.08
2018-03-01T10:39:48.065Z,1015.17
2018-03-01T10:40:48.077Z,1015.09
2018-03-01T10:41:48.088Z,1015.1
2018-03-01T10:42:48.099Z,1015.09
2018-03-01T10:43:48.111Z,1015.01
2018-03-01T10:44:48.123Z,1015.08
2018-03-01T10:45:48.133Z,1015
2018-03-01T10:46:48.146Z,1015.06
2018-03-01T10:47:48.156Z,1014.98
2018-03-01T10:48:48.165Z,1015.02
2018-03-01T10:49:48.178Z,1014.93
2018-03-01T10:50:48.188Z,1014.88
2018-03-01T10:51:48.199Z,1014.9
2018-03-01T10:52:48.211Z,1014.83
2018-03-01T10:53:48.220Z,1014.81
2018-03-01T10:54:48.231Z,1014.79
2018-03-01T10:55:48.243Z,1014.79
2018-03-01T10:56:48.252Z,1014.81
2018-03-01T10:57:48.264Z,1014.78
2018-03-01T10:58:48.274Z,1014.72
2018-03-01T10:59:48.288Z,1014.71
2018-03-01T11:00:48.295Z,1014.64
2018-03-01T11:01:48.306Z,1014.65
2018-03-01T11:02:48.317Z,1014.84
2018-03-01T11:03:48.366Z,1014.6
2018-03-01T11:04:48.337Z,1014.6
2018-03-01T11:05:48.347Z,1014.53
2018-03-01T11:06:48.360Z,1014.5
2018-03-01T11:07:48.372Z,1014.46
2018-03-01T11:09:48.391Z,1014.5
2018-03-01T11:10:48.401Z,1014.47
2018-03-01T11:11:48.411Z,1014.46
2018-03-01T11:12:48.422Z,1014.52
2018-03-01T11:13:48.432Z,1014.47
2018-03-01T11:14:48.443Z,1014.43
2018-03-01T11:15:48.453Z,1014.46
2018-03-01T11:16:48.466Z,1014.46
2018-03-01T11:17:48.474Z,1014.45
2018-03-01T11:18:48.484Z,1014.39
2018-03-01T11:19:48.495Z,1014.38
2018-03-01T11:20:48.505Z,1014.37
2018-03-01T11:21:48.515Z,1014.4
2018-03-01T11:22:48.526Z,1014.41
2018-03-01T11:23:48.536Z,1014.39
2018-03-01T11:25:48.557Z,1014.33
2018-03-01T11:26:48.567Z,1014.3
2018-03-01T11:27:48.579Z,1014.31
2018-03-01T11:28:48.588Z,1014.27
2018-03-01T11:29:48.598Z,1014.28
2018-03-01T11:30:48.608Z,1014.23
2018-03-01T11:31:48.619Z,1014.23
2018-03-01T11:32:48.630Z,1014.21
2018-03-01T11:33:48.639Z,1014.21
2018-03-01T11:34:48.654Z,1014.14
2018-03-01T11:35:48.661Z,1014.1
2018-03-01T11:36:48.672Z,1014.05
2018-03-01T11:37:48.686Z,1014.06
2018-03-01T11:38:48.692Z,1014.06
2018-03-01T11:39:48.703Z,1014.09
2018-03-01T11:41:48.723Z,1014.01
2018-03-01T11:42:48.734Z,1014
2018-03-01T11:43:48.745Z,1013.97
2018-03-01T11:44:48.754Z,1013.96
2018-03-01T11:45:48.764Z,1013.88
2018-03-01T11:46:48.775Z,1013.96
2018-03-01T11:47:48.785Z,1013.92
2018-03-01T11:48:48.795Z,1013.74
2018-03-01T11:49:48.806Z,1013.95
2018-03-01T11:50:48.816Z,1013.93
2018-03-01T11:51:48.827Z,1013.96
2018-03-01T11:52:48.837Z,1013.84
2018-03-01T11:53:48.847Z,1013.87
2018-03-01T11:54:48.864Z,1013.86
2018-03-01T11:55:48.867Z,1013.8
2018-03-01T11:57:48.888Z,1013.8
2018-03-01T11:58:48.899Z,1013.77
2018-03-01T11:59:48.908Z,1013.65
2018-03-01T12:00:48.919Z,1013.65
2018-03-01T12:01:48.939Z,1013.59
2018-03-01T12:02:48.939Z,1013.59
2018-03-01T12:03:48.950Z,1013.55
2018-03-01T12:04:48.960Z,1013.6
2018-03-01T12:05:48.971Z,1013.56
2018-03-01T12:06:48.980Z,1013.47
2018-03-01T12:07:48.991Z,1013.47
2018-03-01T12:08:49.001Z,1013.58
2018-03-01T12:09:49.012Z,1013.43
2018-03-01T12:10:49.022Z,1013.47
2018-03-01T12:12:49.043Z,1013.5
2018-03-01T12:13:49.053Z,1013.53
2018-03-01T12:14:49.067Z,1013.52
2018-03-01T12:15:49.074Z,1013.55
2018-03-01T12:16:49.085Z,1013.53
2018-03-01T12:17:49.094Z,1013.5
2018-03-01T12:18:49.105Z,1013.43
2018-03-01T12:19:49.115Z,1013.43
2018-03-01T12:20:49.125Z,1013.44
2018-03-01T12:21:49.135Z,1013.4
2018-03-01T12:22:49.146Z,1013.35
2018-03-01T12:23:49.158Z,1013.35
2018-03-01T12:24:49.166Z,1013.39
2018-03-01T12:25:49.176Z,1013.3
2018-03-01T12:26:49.187Z,1013.25
2018-03-01T12:27:49.198Z,1013.29
2018-03-01T12:28:49.212Z,1013.23
2018-03-01T12:29:49.218Z,1013.18
2018-03-01T12:30:49.228Z,1013.26
2018-03-01T12:31:49.238Z,1013.23
2018-03-01T12:32:49.248Z,1013.2
2018-03-01T12:33:49.260Z,1013.15
2018-03-01T12:34:49.269Z,1013.24
2018-03-01T12:35:49.278Z,1013.22
2018-03-01T12:36:49.291Z,1013.17
2018-03-01T12:37:49.300Z,1013.12
2018-03-01T12:38:49.311Z,1013.18
2018-03-01T12:39:49.320Z,1013.15
2018-03-01T12:40:49.331Z,1013.19
2018-03-01T12:41:49.341Z,1013.13
2018-03-01T12:42:49.353Z,1013.15
2018-03-01T12:44:49.372Z,1013.08
2018-03-01T12:45:49.384Z,1013.1
2018-03-01T12:46:49.391Z,1013.13
2018-03-01T12:47:49.402Z,1013.1
2018-03-01T12:48:49.415Z,1013.05
2018-03-01T12:49:49.423Z,1013.17
2018-03-01T12:50:49.433Z,1013.14